Latest Weather Observations for Busselton Airport

IDW60801

Issued at 9:35 pm WST Wednesday 16 April 2014 (issued every 30 minutes, with the page automatically refreshed every 10 minutes)

About weather observations | Map of weather stations | Latest weather observations for WA | Other Formats
Station Details ID: 009603 Name: BUSSELTON AERO Lat: -33.69 Lon: 115.40 Height: 16.3 m
Data from the previous 72 hours. | See also: Recent months at Busselton Airport
Date/Time
WST
Temp
°C
App
Temp
°C
Dew
Point
Rel
Hum
%
Delta-T
°C
Wind Press
QNH
hPa
Press
MSL
hPa
Rain
since 9 am
mm
Dir
 
Spd
km/h
Gust
km/h
Spd
kts
Gust
kts
16/09:30pm 18.4 18.2 10.3 59 4.3 WNW 2 6 1 3 1020.7 - 0.0
16/09:00pm 18.6 17.9 10.2 58 4.5 SW 4 6 2 3 1020.6 1020.6 0.0
16/08:30pm 18.7 18.4 10.0 57 4.6 WSW 2 6 1 3 1020.6 - 0.0
16/08:00pm 19.0 17.7 10.1 56 4.8 SW 7 11 4 6 1020.5 - 0.0
16/07:30pm 19.0 17.7 10.1 56 4.8 WSW 7 11 4 6 1020.4 - 0.0
16/07:00pm 19.1 16.7 10.1 56 4.8 WSW 13 17 7 9 1020.3 - 0.0
16/06:30pm 19.2 16.7 9.7 54 5.0 W 13 19 7 10 1020.3 - 0.0
16/06:00pm 19.6 16.8 10.1 54 5.1 WSW 15 20 8 11 1020.2 1020.2 0.0
16/05:30pm 19.9 17.6 10.4 54 5.1 W 13 17 7 9 1020.2 - 0.0
16/05:00pm 20.1 17.4 10.2 53 5.3 W 15 22 8 12 1020.0 - 0.0
16/04:30pm 20.8 18.0 11.5 55 5.2 WNW 17 26 9 14 1020.1 - 0.0
16/04:00pm 21.1 18.6 11.2 53 5.5 WNW 15 24 8 13 1020.1 - 0.0
16/03:30pm 20.6 17.7 11.0 54 5.3 NW 17 24 9 13 1020.4 - 0.0
16/03:00pm 21.0 18.0 10.8 52 5.6 NW 17 24 9 13 1020.5 1020.5 0.0
16/02:30pm 22.5 19.7 11.3 49 6.2 NW 17 26 9 14 1020.7 - 0.0
16/02:00pm 21.1 18.4 10.3 50 5.9 WNW 15 24 8 13 1020.8 - 0.0
16/01:30pm 21.5 19.0 11.0 51 5.8 NNW 15 20 8 11 1021.1 - 0.0
16/01:00pm 20.6 19.1 10.4 52 5.5 NW 9 17 5 9 1021.6 - 0.0
16/12:30pm 21.1 19.4 10.0 49 6.0 W 9 15 5 8 1022.0 - 0.0
16/12:00pm 20.0 17.6 9.9 52 5.4 SSE 13 20 7 11 1022.6 1022.6 0.0
16/11:30am 19.8 17.7 9.7 52 5.4 S 11 20 6 11 1023.1 - 0.0
16/11:00am 19.6 18.8 9.8 53 5.2 SSW 4 9 2 5 1023.2 - 0.0
16/10:30am 18.9 17.5 9.7 55 4.9 WNW 7 15 4 8 1023.5 - 0.0
16/10:00am 18.5 17.5 10.4 59 4.3 N 6 11 3 6 1023.6 - 0.0
16/09:30am 17.7 16.4 11.3 66 3.5 NE 9 9 5 5 1023.8 - 0.0
16/09:00am 16.0 15.1 11.2 73 2.6 ENE 7 9 4 5 1023.9 1023.9 0.0
16/08:30am 15.0 13.9 11.8 81 1.7 ENE 9 9 5 5 1023.7 - 0.0
16/08:00am 14.2 13.5 11.9 86 1.2 E 7 9 4 5 1023.4 - 0.0
16/07:30am 13.3 12.5 11.6 89 0.9 SE 7 11 4 6 1023.2 - 0.0
16/07:00am 12.7 12.0 11.3 91 0.7 ENE 6 9 3 5 1023.0 - 0.0
16/06:30am 12.4 11.5 11.3 93 0.6 NE 7 9 4 5 1022.8 - 0.0
16/06:00am 12.0 12.4 11.3 95 0.4 CALM 0 0 0 0 1022.6 1022.6 0.0
16/05:30am 11.5 10.7 10.9 96 0.3 SE 6 9 3 5 1022.6 - 0.0
16/05:00am 10.7 10.1 10.3 97 0.2 ESE 4 6 2 3 1022.5 - 0.0
16/04:30am 9.5 8.9 8.9 96 0.3 SSW 2 15 1 8 1022.4 - 0.0
16/04:00am 8.6 7.8 8.0 96 0.3 SW 2 7 1 4 1022.5 - 0.0
16/03:30am 8.9 8.1 8.2 95 0.3 S 2 7 1 4 1022.4 - 0.0
16/03:00am 8.4 7.8 7.5 94 0.4 CALM 0 0 0 0 1022.6 1022.6 0.0
16/02:30am 9.8 9.6 9.0 95 0.4 CALM 0 4 0 2 1022.6 - 0.0
16/02:00am 10.6 9.5 9.8 95 0.4 S 6 7 3 4 1022.8 - 0.0
16/01:30am 10.4 9.2 9.5 94 0.5 SSW 6 6 3 3 1023.0 - 0.0
16/01:00am 11.1 9.9 10.2 94 0.5 SSW 7 7 4 4 1023.0 - 0.0
16/12:30am 11.2 10.1 10.0 92 0.6 SSW 6 7 3 4 1023.0 - 0.0
16/12:00am 11.1 9.6 9.2 88 0.9 SW 7 9 4 5 1023.0 1023.0 0.0
 
Date/Time
WST
Temp
°C
App
Temp
°C
Dew
Point
Rel
Hum
%
Delta-T
°C
Wind Press
QNH
hPa
Press
MSL
hPa
Rain
since 9 am
mm
Dir
 
Spd
km/h
Gust
km/h
Spd
kts
Gust
kts
15/11:30pm 14.0 13.4 12.2 89 1.0 SW 7 7 4 4 1023.1 - 0.0
15/11:00pm 14.0 12.9 12.1 88 1.0 SSW 9 11 5 6 1023.3 - 0.0
15/10:30pm 14.7 13.8 12.6 87 1.1 SSW 9 11 5 6 1023.3 - 0.0
15/10:00pm 13.5 11.3 10.9 84 1.4 SSW 13 15 7 8 1023.4 - 0.0
15/09:30pm 15.5 15.1 13.0 85 1.4 S 7 9 4 5 1023.4 - 0.0
15/09:00pm 16.0 15.4 13.5 85 1.4 SSW 9 13 5 7 1023.3 1023.3 0.0
15/08:30pm 16.7 15.4 13.8 83 1.6 SSW 13 15 7 8 1022.9 - 0.0
15/08:00pm 17.3 16.2 14.2 82 1.8 SSW 13 17 7 9 1022.4 - 0.0
15/07:30pm 17.5 16.7 15.0 85 1.5 SSW 13 17 7 9 1022.2 - 0.0
15/07:00pm 17.8 16.3 15.2 85 1.5 SSW 17 20 9 11 1021.8 - 0.0
15/06:30pm 18.5 17.2 15.8 84 1.6 SSW 17 22 9 12 1021.5 - 0.0
15/06:00pm 19.1 18.4 16.4 84 1.6 SW 15 19 8 10 1021.2 1021.2 0.0
15/05:30pm 19.3 19.3 17.1 87 1.3 W 13 17 7 9 1021.0 - 0.0
15/05:00pm 20.6 19.9 16.5 77 2.5 SW 15 19 8 10 1020.7 - 0.0
15/04:30pm 20.2 19.2 16.7 80 2.1 WSW 17 26 9 14 1020.7 - 0.0
15/04:00pm 22.6 20.1 14.2 59 4.9 WSW 20 24 11 13 1020.4 - 0.0
15/03:30pm 22.9 19.6 13.9 57 5.3 WSW 24 35 13 19 1020.3 - 0.0
15/03:00pm 23.9 21.2 12.9 50 6.3 W 19 28 10 15 1020.0 1020.0 0.0
15/02:30pm 23.3 21.7 13.8 55 5.5 WSW 15 20 8 11 1019.9 - 0.0
15/02:00pm 22.6 21.3 15.7 65 4.1 NW 17 20 9 11 1019.8 - 0.0
15/01:30pm 22.3 21.5 15.2 64 4.2 WNW 13 20 7 11 1019.9 - 0.0
15/01:00pm 20.7 18.9 16.1 75 2.8 W 20 30 11 16 1020.5 - 0.0
15/12:30pm 22.6 19.7 13.9 58 5.1 WNW 22 33 12 18 1020.5 - 0.0
15/12:00pm 22.6 19.9 14.7 61 4.7 NNW 22 28 12 15 1020.6 1020.6 0.0
15/11:30am 22.6 20.4 13.4 56 5.3 NW 17 24 9 13 1020.6 - 0.0
15/11:00am 22.0 20.5 13.1 57 5.1 W 13 19 7 10 1020.7 - 0.0
15/10:30am 21.1 20.2 13.8 63 4.2 WSW 11 15 6 8 1020.8 - 0.0
15/10:00am 20.8 19.7 14.2 66 3.8 W 13 20 7 11 1020.9 - 0.0
15/09:30am 19.4 19.0 14.0 71 3.1 WSW 9 13 5 7 1021.0 - 0.0
15/09:00am 17.7 17.9 14.2 80 2.0 WSW 6 7 3 4 1020.8 1020.8 0.0
15/08:30am 16.6 16.6 14.1 85 1.4 SW 7 9 4 5 1020.5 - 0.0
15/08:00am 16.3 17.9 16.0 98 0.2 S 2 7 1 4 1020.0 - 0.0
15/07:30am 14.8 15.2 14.7 99 0.1 ESE 6 6 3 3 1019.3 - 0.0
15/07:00am 12.1 12.6 11.7 97 0.2 CALM 0 0 0 0 1018.9 - 0.0
15/06:30am 12.0 12.1 11.4 96 0.3 E 2 6 1 3 1018.9 - 0.0
15/06:00am 13.1 12.6 12.5 96 0.3 ESE 7 7 4 4 1018.9 1018.9 0.0
15/05:30am 12.7 12.0 12.1 96 0.3 ESE 7 9 4 5 1018.9 - 0.0
15/05:00am 12.6 11.8 11.8 95 0.4 E 7 9 4 5 1018.9 - 0.0
15/04:30am 13.6 13.7 12.7 94 0.5 E 4 7 2 4 1018.7 - 0.0
15/04:00am 14.3 14.5 13.1 92 0.7 E 4 6 2 3 1018.6 - 0.0
15/03:30am 15.2 15.3 13.9 92 0.7 SE 6 7 3 4 1018.6 - 0.0
15/03:00am 15.6 16.1 14.0 90 0.9 S 4 7 2 4 1018.7 1018.7 0.0
15/02:30am 15.6 15.8 14.2 91 0.8 SSE 6 9 3 5 1018.9 - 0.0
15/02:00am 14.8 15.8 13.2 90 0.9 CALM 0 0 0 0 1019.0 - 0.0
15/01:30am 15.2 16.4 13.9 92 0.7 CALM 0 0 0 0 1019.0 - 0.0
15/01:00am 15.4 16.7 14.0 91 0.8 CALM 0 0 0 0 1018.9 - 0.0
15/12:30am 14.9 15.9 13.3 90 0.9 CALM 0 0 0 0 1018.8 - 0.0
15/12:00am 15.8 17.2 14.4 91 0.8 CALM 0 0 0 0 1018.9 1018.9 0.0
 
Date/Time
WST
Temp
°C
App
Temp
°C
Dew
Point
Rel
Hum
%
Delta-T
°C
Wind Press
QNH
hPa
Press
MSL
hPa
Rain
since 9 am
mm
Dir
 
Spd
km/h
Gust
km/h
Spd
kts
Gust
kts
14/11:30pm 15.5 16.6 13.6 88 1.1 CALM 0 0 0 0 1018.9 - 0.0
14/11:00pm 15.8 16.8 13.3 85 1.4 CALM 0 0 0 0 1019.1 - 0.0
14/10:30pm 17.6 19.1 14.7 83 1.7 CALM 0 0 0 0 1019.1 - 0.0
14/10:00pm 19.0 19.5 14.9 77 2.4 WSW 6 7 3 4 1019.1 - 0.0
14/09:30pm 19.6 19.4 14.8 74 2.8 SW 9 13 5 7 1019.1 - 0.0
14/09:00pm 19.3 19.5 14.8 75 2.6 WSW 7 11 4 6 1019.1 1019.1 0.0
14/08:30pm 19.7 20.0 15.0 74 2.8 WSW 7 13 4 7 1019.0 - 0.0
14/08:00pm 19.4 19.7 15.1 76 2.5 W 7 11 4 6 1019.0 - 0.0
14/07:30pm 18.4 18.5 14.5 78 2.3 W 7 9 4 5 1019.0 - 0.0
14/07:00pm 19.1 19.3 14.6 75 2.6 W 7 9 4 5 1018.9 - 0.0
14/06:30pm 19.6 19.0 14.6 73 2.9 W 11 17 6 9 1018.6 - 0.0
14/06:00pm 20.4 19.2 15.0 71 3.2 W 15 19 8 10 1018.5 1018.5 0.0
14/05:30pm 21.8 19.9 15.2 66 3.9 W 19 24 10 13 1018.1 - 0.0
14/05:00pm 22.9 21.0 15.3 62 4.5 NW 19 24 10 13 1017.7 - 0.0
14/04:30pm 23.3 21.7 16.4 65 4.2 NW 20 24 11 13 1017.5 - 0.0
14/04:00pm 23.5 21.4 16.1 63 4.5 NNW 22 26 12 14 1017.3 - 0.0
14/03:30pm 23.7 22.1 16.0 62 4.7 NW 19 22 10 12 1017.5 - 0.0
14/03:00pm 24.1 22.6 16.2 61 4.8 NNW 19 22 10 12 1017.4 1017.4 0.0
14/02:30pm 24.1 22.5 16.1 61 4.9 NNW 19 24 10 13 1017.3 - 0.0
14/02:00pm 24.2 22.7 15.4 58 5.3 NNW 17 22 9 12 1017.2 - 0.0
14/01:30pm 24.0 22.9 15.2 58 5.3 NNW 15 20 8 11 1017.5 - 0.0
14/01:00pm 23.7 22.9 15.0 58 5.2 NNW 13 19 7 10 1017.9 - 0.0
14/12:30pm 23.6 22.3 14.9 58 5.2 NNW 15 19 8 10 1018.3 - 0.0
14/12:00pm 24.2 22.6 14.9 56 5.5 NNW 17 26 9 14 1018.7 1018.7 0.0
14/11:30am 23.3 21.1 14.3 57 5.3 N 19 24 10 13 1018.9 - 0.0
14/11:00am 23.6 21.7 14.1 55 5.6 N 17 24 9 13 1019.2 - 0.0
14/10:30am 24.0 22.8 13.9 53 5.9 NNW 13 20 7 11 1019.3 - 0.0
14/10:00am 23.7 23.9 14.7 57 5.3 NNE 7 13 4 7 1019.3 - 0.0
14/09:30am 21.8 21.0 14.0 61 4.5 NE 11 17 6 9 1019.4 - 0.0
14/09:00am 21.0 20.3 14.2 65 3.9 ENE 11 17 6 9 1019.3 1019.3 0.0
14/08:30am 19.0 18.6 14.1 73 2.8 E 9 13 5 7 1019.4 - 0.0
14/08:00am 16.6 16.6 14.3 86 1.3 S 7 9 4 5 1019.3 - 0.0
14/07:30am 14.1 13.6 12.8 92 0.7 S 7 7 4 4 1019.1 - 0.0
14/07:00am 12.9 12.0 11.2 89 0.9 SSE 7 9 4 5 1018.9 - 0.0
14/06:30am 14.1 13.5 12.4 89 0.9 SE 7 9 4 5 1018.7 - 0.0
14/06:00am 14.8 14.5 12.8 88 1.1 ESE 6 7 3 4 1018.6 1018.6 0.0
14/05:30am 15.0 13.9 13.1 88 1.1 E 11 13 6 7 1018.5 - 0.0
14/05:00am 14.9 13.7 12.8 87 1.2 ESE 11 13 6 7 1018.4 - 0.0
14/04:30am 15.0 13.7 12.5 85 1.4 ESE 11 13 6 7 1018.4 - 0.0
14/04:00am 15.6 14.7 12.7 83 1.6 ESE 9 11 5 6 1018.6 - 0.0
14/03:30am 16.1 15.4 13.1 82 1.7 E 9 11 5 6 1018.6 - 0.0
14/03:00am 16.6 15.5 13.2 80 1.9 E 11 13 6 7 1018.6 1018.6 0.0
14/02:30am 17.1 16.1 13.4 79 2.1 E 11 15 6 8 1018.8 - 0.0
14/02:00am 17.6 16.2 13.5 77 2.3 E 13 19 7 10 1019.2 - 0.0
14/01:30am 18.3 17.0 13.6 74 2.7 ESE 13 17 7 9 1019.4 - 0.0
14/01:00am 18.8 17.1 13.7 72 2.9 ESE 15 19 8 10 1019.5 - 0.0
14/12:30am 19.4 17.4 13.8 70 3.2 ESE 17 22 9 12 1019.4 - 0.0
14/12:00am 20.0 17.4 13.9 68 3.5 E 20 26 11 14 1019.4 1019.4 0.0
 
Date/Time
WST
Temp
°C
App
Temp
°C
Dew
Point
Rel
Hum
%
Delta-T
°C
Wind Press
QNH
hPa
Press
MSL
hPa
Rain
since 9 am
mm
Dir
 
Spd
km/h
Gust
km/h
Spd
kts
Gust
kts
13/11:30pm 20.4 17.5 13.9 66 3.8 E 22 30 12 16 1019.5 - 0.0
13/11:00pm 20.3 18.7 13.8 66 3.7 ESE 15 22 8 12 1019.7 - 0.0
13/10:30pm 20.6 18.9 13.6 64 4.0 ESE 15 20 8 11 1019.8 - 0.0
13/10:00pm 19.8 18.9 13.8 68 3.4 SSE 11 17 6 9 1019.9 - 0.0

Other Formats:

Comma delimited format used in spreadsheet applications
http://www.bom.gov.au/fwo/IDW60801/IDW60801.95611.axf

JavaScript Object Notation format (JSON) in row-major order
http://www.bom.gov.au/fwo/IDW60801/IDW60801.95611.json